ADDS METAR Data INFO
IDs: Format: Raw Decoded Include TAF

Data at: 0308 UTC 16 Aug 2018

PAPM 160256Z AUTO 13010G15KT 10SM SCT034 OVC046 11/06 A2992 RMK AO2 SLP133 60000 T01110056 53001
PAPM 160156Z AUTO 15015KT 10SM BKN037 OVC044 12/06 A2991 RMK AO2 SLP130 T01170056
PAPM 160056Z AUTO 14009KT 10SM FEW028 OVC040 11/06 A2991 RMK AO2 RAB25E35 SLP131 P0000 T01060056
PAPM 152356Z AUTO 17011KT 10SM FEW019 BKN036 OVC050 10/07 A2991 RMK AO2 SLP132 T01000067 10106 20094 51006
PAPM 152339Z AUTO 17014KT 10SM FEW016 BKN030 OVC036 09/07 A2991 RMK AO2
PAPM 152256Z AUTO 18009KT 10SM BKN028 OVC037 10/07 A2991 RMK AO2 SLP130 T01000067
PAPM 152244Z AUTO 16011KT 10SM BKN028 OVC034 10/06 A2991 RMK AO2
PAPM 152156Z AUTO 14012KT 10SM FEW022 BKN038 OVC047 10/06 A2990 RMK AO2 SLP129 T01000056
PAPM 152056Z AUTO 16014KT 10SM FEW023 BKN038 OVC045 10/07 A2989 RMK AO2 SLP126 T01000067 52007
PAPM 151956Z AUTO 15012KT 10SM FEW030 OVC041 11/07 A2988 RMK AO2 SLP123 T01060067
PAPM 151927Z AUTO 16011KT 10SM FEW021 SCT028 OVC041 10/06 A2988 RMK AO2
PAPM 151910Z AUTO 17013KT 10SM BKN023 OVC033 10/06 A2988 RMK AO2
PAPM 151856Z AUTO 15009KT 10SM SCT023 BKN030 OVC038 10/06 A2988 RMK AO2 SLP122 T01000061
PAPM 151826Z AUTO 16011KT 10SM SCT021 OVC042 09/06 A2987 RMK AO2
PAPM 151756Z AUTO 17011KT 10SM BKN023 BKN030 OVC042 09/06 A2987 RMK AO2 SLP118 60004 T00940061 10100 20089 53005
PAPM 151656Z AUTO 19013KT 10SM BKN027 OVC033 09/07 A2986 RMK AO2 RAE1558 SLP116 P0000 T00940072
PAPM 151647Z AUTO 19012KT 10SM SCT021 BKN027 OVC033 09/07 A2986 RMK AO2 RAE1558 P0000
PAPM 151615Z AUTO 18013KT 10SM SCT014 BKN047 OVC080 09/07 A2986 RMK AO2 RAE1558 P0000
PAPM 151556Z AUTO 17010KT 10SM -RA SCT014 BKN026 OVC044 09/07 A2986 RMK AO2 RAE03B22 SLP114 P0002 T00940072
PAPM 151533Z AUTO 18009KT 10SM -RA FEW014 BKN028 OVC090 09/07 A2986 RMK AO2 RAE03B22 P0002
PAPM 151456Z AUTO 15010KT 10SM -RA SCT040 BKN055 OVC100 09/07 A2986 RMK AO2 SLP114 P0001 60002 T00940072 58001
PAPM 151410Z AUTO 18010KT 10SM -RA SCT013 SCT019 OVC037 09/08 A2986 RMK AO2 P0000
PAPM 151356Z AUTO 17012KT 10SM -RA BKN013 BKN021 OVC039 09/08 A2986 RMK AO2 SLP114 P0001 T00940078
PAPM 151354Z AUTO 17013KT 10SM -RA BKN013 BKN019 OVC041 09/08 A2986 RMK AO2 P0001
PAPM 151321Z AUTO 19011KT 10SM -RA FEW008 BKN015 OVC021 09/08 A2986 RMK AO2 P0000
PAPM 151306Z AUTO 19012KT 9SM -RA SCT008 BKN014 OVC049 09/08 A2986 RMK AO2 P0000
PAPM 151256Z AUTO 17013KT 10SM -RA BKN014 BKN021 OVC065 10/08 A2986 RMK AO2 RAB24 SLP114 P0000 T01000078
PAPM 151205Z AUTO 17011KT 10SM BKN012 BKN024 OVC055 09/08 A2986 RMK AO2
PAPM 151156Z AUTO 17011KT 10SM SCT010 BKN030 OVC055 09/08 A2987 RMK AO2 SLP116 60006 70006 T00940078 10106 20089 56008
PAPM 151130Z AUTO 16009KT 10SM SCT008 OVC027 09/08 A2987 RMK AO2
PAPM 151056Z AUTO 20008KT 9SM BKN006 OVC015 09/08 A2987 RMK AO2 RAE27 CIG 004V008 SLP119 P0005 T00890083
PAPM 151031Z AUTO 20008KT 5SM BR BKN006 OVC010 09/08 A2988 RMK AO2 RAE27 CIG 003V007 P0005
PAPM 151010Z AUTO VRB03KT 2SM RA BR BKN009 OVC014 09/08 A2988 RMK AO2 CIG 004V012 P0003
PAPM 151003Z AUTO 11003KT 3SM -RA BR BKN009 BKN014 OVC033 09/08 A2988 RMK AO2 CIG 007V011 P0001
PAPM 150956Z AUTO 11003KT 4SM -RA BR SCT010 BKN014 OVC033 09/08 A2988 RMK AO2 RAB03 SLP121 P0001 T00890083
PAPM 150856Z AUTO 15011KT 10SM SCT019 BKN024 OVC050 10/08 A2989 RMK AO2 RAB04E31 SLP125 P0000 60000 T01000078 401220100 56009
PAPM 150835Z AUTO 14010KT 10SM FEW015 SCT021 OVC050 10/08 A2989 RMK AO2 RAB04E31 P0000
PAPM 150756Z AUTO 16012KT 10SM BKN015 BKN025 OVC033 11/08 A2990 RMK AO2 SLP126 T01060078
PAPM 150719Z AUTO 16010KT 10SM SCT018 BKN025 OVC035 11/08 A2990 RMK AO2
PAPM 150656Z AUTO 17009KT 10SM FEW018 OVC037 11/07 A2991 RMK AO2 SLP130 T01060072
PAPM 150556Z AUTO 19010KT 10SM FEW017 SCT024 OVC033 11/07 A2992 RMK AO2 SLP134 T01060067 10122 20100 58006
PAPM 150504Z AUTO 19013KT 10SM BKN015 OVC038 11/07 A2992 RMK AO2
PAPM 150456Z AUTO 19012KT 10SM SCT015 BKN031 OVC042 11/08 A2993 RMK AO2 SLP136 T01060078
PAPM 150406Z AUTO 19010KT 10SM SCT016 OVC035 11/08 A2993 RMK AO2
PAPM 150356Z AUTO 21012KT 10SM BKN016 OVC037 11/08 A2994 RMK AO2 SLP140 T01060078
PAPM 150353Z AUTO 20011KT 10SM BKN016 BKN021 OVC037 11/08 A2994 RMK AO2
PAPM 150256Z AUTO 21013KT 10SM SCT013 OVC035 11/08 A2994 RMK AO2 SLP143 T01110083 56006
PAPM 150251Z AUTO 21014KT 10SM SCT013 OVC035 11/08 A2995 RMK AO2
PAPM 150244Z AUTO 20012KT 10SM BKN015 OVC037 11/08 A2995 RMK AO2
PAPM 150237Z AUTO 21010KT 10SM SCT015 OVC037 11/08 A2995 RMK AO2
PAPM 150156Z AUTO 21012KT 10SM SCT017 BKN026 BKN037 11/07 A2996 RMK AO2 SLP147 T01110072
PAPM 150056Z AUTO 21013KT 10SM BKN020 BKN029 12/08 A2996 RMK AO2 SLP149 T01170078
PAPM 142356Z AUTO 21014KT 10SM SCT020 OVC031 12/07 A2998 RMK AO2 SLP153 T01170067 10117 20100 58003
PAPM 142256Z AUTO 21012KT 10SM SCT022 OVC035 11/07 A2998 RMK AO2 SLP155 T01110072
PAPM 142240Z AUTO 21016KT 10SM FEW020 SCT025 OVC033 11/07 A2999 RMK AO2
PAPM 142213Z AUTO 22015KT 10SM FEW022 OVC029 11/07 A2998 RMK AO2
PAPM 142156Z AUTO 23011KT 10SM OVC031 11/07 A2999 RMK AO2 SLP157 T01110067
PAPM 142122Z AUTO 24017KT 10SM FEW022 OVC030 11/06 A2998 RMK AO2
PAPM 142056Z AUTO 24015KT 10SM BKN022 OVC032 11/07 A2998 RMK AO2 SLP156 T01110067 51008
PAPM 142018Z AUTO 24015KT 10SM BKN024 OVC030 11/07 A2998 RMK AO2
PAPM 141956Z AUTO 24017G23KT 10SM SCT026 OVC031 11/06 A2998 RMK AO2 SLP153 T01060061
PAPM 141942Z AUTO 23017G24KT 10SM FEW020 OVC030 11/06 A2998 RMK AO2
PAPM 141856Z AUTO 22020G25KT 10SM BKN026 OVC032 11/06 A2997 RMK AO2 PK WND 24027/1803 SLP152 T01060061
PAPM 141756Z AUTO 24025KT 10SM OVC023 10/06 A2996 RMK AO2 PK WND 24029/1721 SLP148 T01000061 10106 20100 50005
PAPM 141656Z AUTO 25020G29KT 10SM OVC022 10/06 A2997 RMK AO2 PK WND 24031/1620 SLP151 T01000061
PAPM 141556Z AUTO 25019G29KT 10SM OVC024 11/07 A2996 RMK AO2 PK WND 24029/1550 SLP149 T01060067